createdAt,value
2023-02-14T00:01:46.854Z,139.57
2023-02-14T00:04:13.367Z,138.73
2023-02-14T00:06:39.926Z,135.13
2023-02-14T00:09:06.761Z,131.00
2023-02-14T00:11:33.314Z,128.35
2023-02-14T00:13:59.983Z,130.45
2023-02-14T00:16:26.726Z,125.82
2023-02-14T00:18:53.216Z,128.85
2023-02-14T00:21:19.677Z,126.55
2023-02-14T00:23:46.165Z,130.60
2023-02-14T00:26:12.954Z,121.80
2023-02-14T00:28:39.502Z,121.35
2023-02-14T00:31:06.467Z,118.78
2023-02-14T00:33:33.129Z,117.28
2023-02-14T00:35:59.691Z,116.28
2023-02-14T00:38:26.483Z,117.68
2023-02-14T00:40:53.163Z,120.93
2023-02-14T00:43:19.868Z,116.75
2023-02-14T00:45:46.324Z,114.20
2023-02-14T00:48:13.041Z,109.97
2023-02-14T00:50:39.704Z,113.72
2023-02-14T00:53:06.501Z,108.00
2023-02-14T00:55:33.284Z,111.93
2023-02-14T00:57:59.728Z,107.70
2023-02-14T01:00:26.177Z,107.60
2023-02-14T01:02:52.779Z,109.72
2023-02-14T01:05:19.473Z,104.20
2023-02-14T01:07:46.056Z,103.88
2023-02-14T01:10:12.642Z,100.93
2023-02-14T01:12:39.388Z,106.43
2023-02-14T01:15:05.856Z,102.65
2023-02-14T01:17:32.387Z,96.25
2023-02-14T01:19:58.842Z,98.53
2023-02-14T01:22:25.467Z,97.93
2023-02-14T01:24:51.974Z,96.88
2023-02-14T01:27:18.677Z,93.60
2023-02-14T01:29:45.462Z,93.72
2023-02-14T01:32:12.063Z,96.15
2023-02-14T01:34:39.209Z,93.50
2023-02-14T01:37:05.961Z,92.07
2023-02-14T01:39:32.390Z,90.95
2023-02-14T01:41:59.294Z,89.90
2023-02-14T01:44:26.056Z,91.68
2023-02-14T01:46:52.478Z,90.20
2023-02-14T01:49:19.196Z,86.28
2023-02-14T01:51:45.830Z,84.95
2023-02-14T01:54:12.227Z,82.22
2023-02-14T01:56:39.277Z,86.82
2023-02-14T01:59:06.025Z,82.10
2023-02-14T02:01:32.461Z,83.75
2023-02-14T02:03:58.981Z,82.70
2023-02-14T02:06:25.673Z,80.93
2023-02-14T02:08:54.247Z,85.63
2023-02-14T02:11:20.637Z,77.40
2023-02-14T02:13:47.987Z,78.50
2023-02-14T02:16:14.666Z,80.18
2023-02-14T02:18:41.627Z,79.05
2023-02-14T02:21:08.106Z,75.50
2023-02-14T02:23:34.726Z,74.53
2023-02-14T02:26:01.178Z,74.72
2023-02-14T02:28:27.676Z,72.70
2023-02-14T02:30:54.216Z,69.75
2023-02-14T02:33:21.007Z,73.45
2023-02-14T02:35:47.510Z,74.38
2023-02-14T02:38:14.400Z,72.30
2023-02-14T02:40:41.256Z,72.10
2023-02-14T02:43:07.780Z,72.95
2023-02-14T02:45:34.395Z,69.00
2023-02-14T02:48:00.856Z,71.85
2023-02-14T02:50:27.919Z,67.57
2023-02-14T02:52:54.452Z,71.55
2023-02-14T02:55:22.030Z,69.32
2023-02-14T02:57:48.381Z,66.15
2023-02-14T03:00:15.497Z,67.35
2023-02-14T03:02:42.275Z,65.03
2023-02-14T03:05:08.990Z,64.07
2023-02-14T03:07:35.826Z,66.05
2023-02-14T03:10:02.503Z,66.65
2023-02-14T03:12:29.205Z,64.00
2023-02-14T03:14:56.229Z,65.28
2023-02-14T03:17:22.801Z,63.85
2023-02-14T03:19:49.240Z,62.90
2023-02-14T03:22:15.735Z,61.13
2023-02-14T03:24:42.283Z,62.00
2023-02-14T03:27:09.269Z,63.50
2023-02-14T03:29:35.922Z,63.03
2023-02-14T03:32:02.919Z,58.78
2023-02-14T03:34:29.913Z,59.22
2023-02-14T03:36:56.966Z,60.80
2023-02-14T03:39:24.266Z,57.22
2023-02-14T03:41:50.772Z,58.92
2023-02-14T03:44:17.148Z,59.33
2023-02-14T03:46:43.633Z,60.53
2023-02-14T03:49:10.299Z,59.30
2023-02-14T03:51:37.243Z,61.13
2023-02-14T03:54:03.718Z,58.75
2023-02-14T03:56:30.234Z,54.83
2023-02-14T03:58:56.820Z,57.47
2023-02-14T04:01:23.370Z,54.70
2023-02-14T04:03:50.191Z,52.45
2023-02-14T04:06:17.130Z,56.17
2023-02-14T04:08:43.643Z,54.05
2023-02-14T04:11:10.314Z,54.80
2023-02-14T04:13:36.869Z,54.03
2023-02-14T04:16:03.397Z,54.42
2023-02-14T04:18:29.888Z,54.67
2023-02-14T04:20:56.261Z,53.13
2023-02-14T04:23:22.661Z,54.90
2023-02-14T04:25:49.114Z,52.78
2023-02-14T04:28:16.119Z,51.15
2023-02-14T04:30:42.709Z,53.22
2023-02-14T04:33:09.393Z,54.72
2023-02-14T04:35:36.103Z,51.90
2023-02-14T04:38:02.734Z,48.75
2023-02-14T04:40:29.630Z,51.45
2023-02-14T04:42:56.380Z,50.03
2023-02-14T04:45:23.131Z,47.15
2023-02-14T04:47:49.503Z,48.47
2023-02-14T04:50:16.004Z,47.53
2023-02-14T04:52:42.585Z,46.63
2023-02-14T04:55:09.108Z,49.65
2023-02-14T04:57:35.726Z,49.22
2023-02-14T05:00:02.194Z,49.88
2023-02-14T05:02:28.903Z,48.17
2023-02-14T05:04:55.378Z,47.83
2023-02-14T05:07:21.764Z,47.25
2023-02-14T05:09:48.285Z,46.22
2023-02-14T05:12:14.908Z,44.10
2023-02-14T05:14:41.382Z,46.05
2023-02-14T05:17:07.962Z,45.50
2023-02-14T05:19:34.430Z,45.08
2023-02-14T05:22:00.885Z,44.08
2023-02-14T05:24:27.353Z,43.53
2023-02-14T05:26:54.621Z,44.25
2023-02-14T05:29:21.108Z,43.47
2023-02-14T05:31:48.209Z,40.40
2023-02-14T05:34:15.129Z,41.92
2023-02-14T05:36:42.412Z,43.97
2023-02-14T05:39:08.821Z,41.92
2023-02-14T05:41:35.210Z,42.90
2023-02-14T05:44:01.906Z,44.45
2023-02-14T05:46:28.748Z,41.75
2023-02-14T05:48:55.083Z,39.95
2023-02-14T05:51:21.648Z,42.58
2023-02-14T05:53:48.283Z,42.63
2023-02-14T05:56:15.189Z,41.05
2023-02-14T05:58:41.916Z,39.80
2023-02-14T06:01:08.924Z,39.63
2023-02-14T06:03:35.377Z,38.60
2023-02-14T06:06:02.182Z,43.38
2023-02-14T06:08:28.641Z,43.95
2023-02-14T06:10:55.113Z,43.65
2023-02-14T06:13:21.616Z,41.47
2023-02-14T06:15:48.518Z,44.60
2023-02-14T06:18:15.522Z,42.67
2023-02-14T06:20:42.077Z,41.13
2023-02-14T06:23:08.527Z,39.85
2023-02-14T06:25:35.331Z,43.00
2023-02-14T06:28:02.114Z,43.10
2023-02-14T06:30:29.126Z,39.38
2023-02-14T06:32:55.617Z,39.42
2023-02-14T06:35:22.093Z,41.65
2023-02-14T06:37:48.640Z,38.17
2023-02-14T06:40:15.147Z,40.90
2023-02-14T06:42:41.749Z,43.00
2023-02-14T06:45:08.148Z,40.03
2023-02-14T06:47:35.277Z,41.03
2023-02-14T06:50:01.777Z,41.53
2023-02-14T06:52:28.297Z,39.88
2023-02-14T06:54:54.884Z,38.80
2023-02-14T06:57:21.463Z,38.13
2023-02-14T06:59:47.863Z,41.10
2023-02-14T07:02:14.322Z,37.38
2023-02-14T07:04:40.877Z,38.50
2023-02-14T07:07:07.418Z,39.13
2023-02-14T07:09:33.908Z,37.45
2023-02-14T07:12:00.330Z,40.13
2023-02-14T07:14:26.715Z,38.60
2023-02-14T07:16:53.221Z,36.92
2023-02-14T07:19:19.654Z,36.58
2023-02-14T07:21:46.198Z,35.70
2023-02-14T07:24:12.624Z,36.95
2023-02-14T07:26:39.128Z,36.28
2023-02-14T07:29:05.625Z,37.05
2023-02-14T07:31:32.222Z,33.78
2023-02-14T07:33:58.744Z,37.33
2023-02-14T07:36:25.199Z,37.67
2023-02-14T07:38:51.661Z,35.50
2023-02-14T07:41:18.539Z,39.25
2023-02-14T07:43:45.118Z,34.72
2023-02-14T07:46:11.636Z,37.53
2023-02-14T07:48:38.123Z,38.85
2023-02-14T07:51:04.590Z,37.42
2023-02-14T07:53:30.975Z,37.55
2023-02-14T07:55:57.421Z,37.25
2023-02-14T07:58:24.204Z,37.03
2023-02-14T08:00:50.676Z,34.45
2023-02-14T08:03:17.172Z,36.22
2023-02-14T08:05:43.749Z,37.83
2023-02-14T08:08:10.238Z,38.83
2023-02-14T08:10:36.728Z,41.10
2023-02-14T08:13:03.216Z,38.45
2023-02-14T08:15:29.659Z,40.22
2023-02-14T08:17:58.612Z,40.75
2023-02-14T08:20:25.111Z,41.20
2023-02-14T08:22:51.699Z,39.55
2023-02-14T08:25:18.128Z,44.17
2023-02-14T08:27:44.584Z,39.88
2023-02-14T08:30:11.562Z,39.20
2023-02-14T08:32:38.603Z,38.83
2023-02-14T08:35:05.697Z,37.92
2023-02-14T08:37:32.406Z,39.80
2023-02-14T08:39:58.883Z,38.15
2023-02-14T08:42:25.313Z,38.30
2023-02-14T08:44:51.952Z,38.72
2023-02-14T08:47:18.384Z,34.65
2023-02-14T08:49:45.048Z,39.47
2023-02-14T08:52:11.609Z,36.67
2023-02-14T08:54:37.982Z,35.22
2023-02-14T08:57:04.358Z,44.60
2023-02-14T08:59:30.772Z,41.95
2023-02-14T09:01:57.317Z,39.50
2023-02-14T09:04:23.822Z,39.80
2023-02-14T09:06:50.555Z,40.70
2023-02-14T09:09:17.200Z,40.35
2023-02-14T09:11:43.907Z,41.97
2023-02-14T09:14:10.366Z,37.00
2023-02-14T09:16:37.009Z,40.03
2023-02-14T09:19:05.723Z,36.97
2023-02-14T09:21:32.102Z,36.13
2023-02-14T09:23:58.571Z,42.55
2023-02-14T09:26:25.082Z,36.33
2023-02-14T09:28:51.490Z,42.83
2023-02-14T09:31:17.946Z,37.67
2023-02-14T09:33:44.480Z,42.97
2023-02-14T09:36:10.975Z,40.40
2023-02-14T09:38:37.429Z,39.88
2023-02-14T09:41:04.040Z,38.70
2023-02-14T09:43:30.568Z,41.83
2023-02-14T09:45:57.119Z,41.30
2023-02-14T09:48:23.810Z,40.08
2023-02-14T09:50:50.394Z,40.65
2023-02-14T09:53:16.728Z,39.58
2023-02-14T09:55:43.452Z,41.70
2023-02-14T09:58:09.998Z,39.58
2023-02-14T10:00:36.493Z,43.65
2023-02-14T10:03:03.233Z,41.65
2023-02-14T10:05:29.902Z,45.25
2023-02-14T10:07:56.316Z,45.83
2023-02-14T10:10:22.798Z,47.80
2023-02-14T10:12:49.353Z,46.20
2023-02-14T10:15:15.849Z,58.42
2023-02-14T10:17:42.432Z,75.53
2023-02-14T10:20:08.943Z,76.18
2023-02-14T10:22:35.401Z,69.35
2023-02-14T10:25:01.879Z,72.22
2023-02-14T10:27:28.247Z,62.75
2023-02-14T10:29:55.515Z,59.55
2023-02-14T10:32:22.167Z,59.28
2023-02-14T10:34:48.746Z,64.75
2023-02-14T10:37:15.142Z,64.65
2023-02-14T10:39:41.600Z,72.15
2023-02-14T10:42:08.009Z,67.22
2023-02-14T10:44:34.334Z,70.38
2023-02-14T10:47:00.636Z,68.82
2023-02-14T10:49:27.181Z,68.00
2023-02-14T10:51:53.571Z,72.45
2023-02-14T10:54:20.003Z,83.45
2023-02-14T10:56:46.584Z,73.53
2023-02-14T10:59:13.221Z,75.95
2023-02-14T11:01:39.871Z,87.93
2023-02-14T11:04:06.385Z,84.18
2023-02-14T11:06:32.701Z,83.43
2023-02-14T11:08:59.075Z,97.05
2023-02-14T11:11:25.431Z,96.75
2023-02-14T11:13:51.817Z,106.30
2023-02-14T11:16:18.620Z,107.53
2023-02-14T11:18:45.515Z,113.07
2023-02-14T11:21:23.121Z,116.82
2023-02-14T11:23:50.534Z,115.13
2023-02-14T11:26:17.312Z,118.13
2023-02-14T11:28:43.845Z,125.35
2023-02-14T11:31:10.446Z,117.38
2023-02-14T11:33:37.176Z,120.93
2023-02-14T11:36:03.896Z,125.93
2023-02-14T11:38:30.273Z,135.93
2023-02-14T11:40:57.126Z,136.57
2023-02-14T11:43:23.622Z,148.25
2023-02-14T11:45:50.188Z,146.80
2023-02-14T11:48:22.045Z,146.00
2023-02-14T11:50:51.417Z,146.30
2023-02-14T11:53:18.018Z,155.75
2023-02-14T11:55:44.635Z,181.13
2023-02-14T11:58:11.069Z,160.18
2023-02-14T12:00:37.558Z,170.93
2023-02-14T12:03:04.128Z,177.32
2023-02-14T12:05:30.538Z,165.18
2023-02-14T12:07:57.256Z,204.90
2023-02-14T12:10:23.768Z,195.18
2023-02-14T12:12:50.372Z,176.98
2023-02-14T12:15:16.810Z,191.75
2023-02-14T12:17:43.248Z,195.80
2023-02-14T12:20:09.950Z,193.73
2023-02-14T12:22:36.656Z,206.05
2023-02-14T12:25:03.150Z,244.38
2023-02-14T12:27:29.597Z,223.20
2023-02-14T12:29:56.122Z,226.82
2023-02-14T12:32:22.630Z,252.68
2023-02-14T12:34:49.077Z,233.93
2023-02-14T12:37:15.668Z,239.75
2023-02-14T12:39:42.307Z,227.82
2023-02-14T12:42:08.940Z,222.60
2023-02-14T12:44:35.488Z,241.40
2023-02-14T12:47:02.051Z,241.55
2023-02-14T12:49:28.525Z,235.23
2023-02-14T12:51:55.031Z,243.40
2023-02-14T12:54:21.493Z,253.05
2023-02-14T12:56:48.156Z,267.10
2023-02-14T12:59:14.685Z,289.15
2023-02-14T13:01:41.123Z,298.17
2023-02-14T13:04:07.720Z,298.77
2023-02-14T13:06:34.529Z,302.60
2023-02-14T13:09:01.297Z,302.38
2023-02-14T13:11:27.808Z,290.40
2023-02-14T13:13:54.345Z,287.35
2023-02-14T13:16:20.997Z,296.90
2023-02-14T13:18:47.535Z,275.65
2023-02-14T13:21:13.941Z,293.23
2023-02-14T13:23:40.420Z,275.27
2023-02-14T13:26:06.755Z,284.92
2023-02-14T13:28:33.672Z,276.30
2023-02-14T13:31:00.693Z,284.02
2023-02-14T13:33:27.598Z,275.10
2023-02-14T13:35:54.189Z,261.58
2023-02-14T13:38:21.181Z,249.30
2023-02-14T13:40:47.601Z,257.20
2023-02-14T13:43:14.041Z,255.73
2023-02-14T13:45:41.169Z,242.93
2023-02-14T13:48:07.597Z,244.88
2023-02-14T13:50:35.099Z,238.75
2023-02-14T13:53:01.920Z,239.00
2023-02-14T13:55:28.571Z,231.32
2023-02-14T13:57:55.151Z,229.15
2023-02-14T14:00:21.575Z,223.13
2023-02-14T14:02:48.081Z,236.95
2023-02-14T14:05:14.435Z,219.75
2023-02-14T14:07:40.780Z,214.48
2023-02-14T14:10:07.160Z,219.70
2023-02-14T14:12:34.834Z,206.18
2023-02-14T14:15:01.140Z,196.88
2023-02-14T14:17:27.838Z,183.25
2023-02-14T14:19:54.292Z,191.35
2023-02-14T14:22:20.658Z,188.45
2023-02-14T14:24:47.107Z,186.15
2023-02-14T14:27:13.631Z,180.25
2023-02-14T14:29:40.332Z,176.18
2023-02-14T14:32:06.728Z,166.38
2023-02-14T14:34:33.214Z,169.75
2023-02-14T14:36:59.600Z,167.32
2023-02-14T14:39:26.136Z,160.45
2023-02-14T14:41:52.729Z,160.85
2023-02-14T14:44:19.441Z,155.98
2023-02-14T14:46:45.963Z,141.65
2023-02-14T14:49:12.576Z,149.65
2023-02-14T14:51:39.150Z,142.13
2023-02-14T14:54:05.735Z,135.30
2023-02-14T14:56:32.491Z,139.70
2023-02-14T14:58:59.123Z,132.65
2023-02-14T15:01:25.871Z,131.05
2023-02-14T15:03:52.416Z,130.02
2023-02-14T15:06:19.015Z,117.72
2023-02-14T15:08:46.682Z,125.07
2023-02-14T15:11:13.030Z,116.97
2023-02-14T15:13:39.818Z,113.25
2023-02-14T15:16:06.306Z,110.63
2023-02-14T15:18:32.754Z,114.85
2023-02-14T15:20:59.593Z,108.10
2023-02-14T15:23:26.192Z,109.03
2023-02-14T15:25:52.548Z,103.30
2023-02-14T15:28:19.058Z,103.25
2023-02-14T15:30:45.492Z,101.45
2023-02-14T15:33:12.267Z,97.85
2023-02-14T15:35:38.868Z,93.50
2023-02-14T15:38:05.562Z,95.70
2023-02-14T15:40:31.935Z,98.22
2023-02-14T15:42:58.480Z,92.30
2023-02-14T15:45:24.843Z,91.00
2023-02-14T15:47:51.263Z,88.20
2023-02-14T15:50:17.633Z,88.10
2023-02-14T15:52:44.043Z,84.15
2023-02-14T15:55:10.572Z,81.68
2023-02-14T15:57:37.157Z,83.50
2023-02-14T16:00:03.609Z,84.38
2023-02-14T16:02:30.039Z,79.85
2023-02-14T16:04:56.816Z,78.95
2023-02-14T16:07:23.152Z,74.40
2023-02-14T16:09:49.956Z,73.20
2023-02-14T16:12:16.995Z,74.45
2023-02-14T16:14:43.331Z,72.78
2023-02-14T16:17:09.855Z,69.15
2023-02-14T16:19:36.905Z,72.82
2023-02-14T16:22:03.397Z,76.90
2023-02-14T16:24:29.882Z,68.20
2023-02-14T16:26:56.438Z,72.38
2023-02-14T16:29:22.803Z,62.92
2023-02-14T16:32:12.089Z,66.25
2023-02-14T16:34:35.518Z,66.13
2023-02-14T16:37:02.030Z,65.38
2023-02-14T16:39:28.480Z,60.30
2023-02-14T16:41:55.307Z,60.40
2023-02-14T16:44:22.050Z,63.30
2023-02-14T16:46:48.709Z,63.30
2023-02-14T16:49:15.098Z,66.57
2023-02-14T16:51:41.548Z,61.70
2023-02-14T16:54:08.158Z,61.42
2023-02-14T16:56:34.521Z,58.35
2023-02-14T16:59:00.851Z,59.17
2023-02-14T17:01:27.230Z,55.97
2023-02-14T17:03:53.695Z,60.63
2023-02-14T17:06:20.055Z,53.28
2023-02-14T17:08:46.532Z,58.53
2023-02-14T17:11:12.819Z,53.38
2023-02-14T17:13:41.071Z,55.60
2023-02-14T17:16:07.714Z,51.83
2023-02-14T17:18:34.181Z,52.63
2023-02-14T17:21:01.093Z,51.53
2023-02-14T17:23:28.073Z,53.78
2023-02-14T17:25:54.668Z,51.67
2023-02-14T17:28:21.014Z,48.90
2023-02-14T17:30:47.463Z,52.53
2023-02-14T17:33:14.316Z,49.35
2023-02-14T17:35:40.944Z,53.75
2023-02-14T17:38:07.332Z,50.22
2023-02-14T17:40:33.702Z,51.28
2023-02-14T17:43:00.276Z,46.70
2023-02-14T17:45:26.758Z,51.60
2023-02-14T17:47:53.084Z,47.90
2023-02-14T17:50:19.643Z,46.50
2023-02-14T17:52:46.308Z,47.00
2023-02-14T17:55:12.869Z,49.67
2023-02-14T17:57:39.280Z,44.75
2023-02-14T18:00:05.750Z,49.63
2023-02-14T18:02:32.104Z,45.10
2023-02-14T18:04:58.667Z,47.17
2023-02-14T18:07:25.034Z,44.10
2023-02-14T18:09:51.521Z,45.05
2023-02-14T18:12:18.280Z,45.67
2023-02-14T18:14:45.144Z,47.83
2023-02-14T18:17:11.855Z,46.78
2023-02-14T18:19:38.841Z,44.30
2023-02-14T18:22:05.395Z,77.57
2023-02-14T18:24:31.834Z,100.78
2023-02-14T18:26:58.350Z,108.30
2023-02-14T18:29:24.944Z,97.88
2023-02-14T18:31:51.341Z,92.75
2023-02-14T18:34:18.058Z,87.07
2023-02-14T18:36:44.833Z,83.25
2023-02-14T18:39:11.409Z,80.05
2023-02-14T18:41:37.789Z,92.40
2023-02-14T18:44:04.591Z,109.18
2023-02-14T18:46:31.003Z,108.60
2023-02-14T18:48:57.564Z,107.35
2023-02-14T18:51:24.089Z,100.15
2023-02-14T18:53:50.399Z,99.10
2023-02-14T18:56:16.747Z,144.73
2023-02-14T18:58:43.089Z,301.75
2023-02-14T19:01:09.571Z,240.90
2023-02-14T19:03:36.535Z,218.55
2023-02-14T19:06:03.154Z,208.20
2023-02-14T19:08:29.465Z,190.25
2023-02-14T19:10:56.181Z,279.55
2023-02-14T19:13:22.692Z,348.17
2023-02-14T19:15:49.818Z,301.60
2023-02-14T19:18:16.400Z,276.27
2023-02-14T19:20:42.906Z,263.13
2023-02-14T19:23:09.618Z,239.85
2023-02-14T19:25:36.407Z,237.23
2023-02-14T19:28:03.276Z,213.50
2023-02-14T19:30:30.230Z,202.20
2023-02-14T19:32:57.190Z,194.35
2023-02-14T19:35:23.884Z,180.13
2023-02-14T19:37:50.302Z,173.23
2023-02-14T19:40:16.782Z,167.57
2023-02-14T19:42:43.667Z,161.02
2023-02-14T19:45:10.013Z,156.93
2023-02-14T19:47:46.514Z,194.10
2023-02-14T19:50:14.220Z,254.35
2023-02-14T19:52:40.895Z,274.65
2023-02-14T19:55:07.450Z,247.13
2023-02-14T19:57:33.883Z,235.15
2023-02-14T20:00:00.557Z,214.15
2023-02-14T20:02:27.252Z,211.80
2023-02-14T20:04:53.879Z,194.90
2023-02-14T20:07:20.574Z,182.43
2023-02-14T20:09:47.014Z,164.60
2023-02-14T20:12:13.479Z,255.43
2023-02-14T20:14:50.980Z,305.33
2023-02-14T20:17:18.107Z,291.17
2023-02-14T20:19:45.171Z,259.40
2023-02-14T20:22:11.560Z,236.50
2023-02-14T20:24:38.423Z,223.73
2023-02-14T20:27:04.884Z,230.45
2023-02-14T20:29:31.732Z,224.00
2023-02-14T20:31:58.287Z,203.43
2023-02-14T20:34:24.721Z,179.35
2023-02-14T20:36:51.098Z,171.85
2023-02-14T20:39:17.408Z,150.27
2023-02-14T20:41:44.036Z,142.25
2023-02-14T20:44:10.404Z,134.15
2023-02-14T20:46:37.059Z,128.98
2023-02-14T20:49:03.628Z,121.55
2023-02-14T20:51:30.051Z,115.25
2023-02-14T20:53:56.917Z,105.13
2023-02-14T20:56:24.018Z,97.90
2023-02-14T20:58:50.414Z,86.38
2023-02-14T21:01:17.113Z,78.65
2023-02-14T21:03:47.780Z,247.63
2023-02-14T21:06:16.238Z,258.65
2023-02-14T21:08:42.692Z,242.02
2023-02-14T21:11:09.500Z,227.55
2023-02-14T21:13:36.452Z,212.50
2023-02-14T21:16:03.228Z,186.98
2023-02-14T21:18:29.879Z,189.75
2023-02-14T21:20:56.912Z,166.10
2023-02-14T21:23:23.745Z,161.07
2023-02-14T21:25:50.282Z,151.02
2023-02-14T21:28:17.223Z,142.73
2023-02-14T21:30:43.983Z,132.43
2023-02-14T21:33:10.614Z,123.95
2023-02-14T21:35:37.054Z,116.32
2023-02-14T21:38:03.667Z,102.05
2023-02-14T21:40:30.087Z,99.45
2023-02-14T21:42:57.124Z,93.30
2023-02-14T21:45:23.885Z,92.90
2023-02-14T21:47:50.365Z,322.20
2023-02-14T21:50:16.915Z,284.55
2023-02-14T21:52:46.094Z,241.13
2023-02-14T21:55:13.022Z,216.68
2023-02-14T21:57:40.020Z,364.70
2023-02-14T22:00:06.986Z,411.55
2023-02-14T22:02:33.379Z,349.00
2023-02-14T22:05:00.959Z,324.52
2023-02-14T22:07:27.858Z,301.67
2023-02-14T22:09:54.278Z,282.05
2023-02-14T22:12:20.989Z,265.88
2023-02-14T22:14:47.324Z,241.95
2023-02-14T22:17:14.311Z,230.43
2023-02-14T22:19:41.132Z,210.95
2023-02-14T22:22:08.052Z,198.52
2023-02-14T22:24:34.603Z,219.30
2023-02-14T22:27:01.144Z,365.65
2023-02-14T22:29:27.507Z,323.50
2023-02-14T22:31:54.403Z,300.63
2023-02-14T22:34:21.038Z,278.90
2023-02-14T22:36:47.812Z,268.58
2023-02-14T22:39:14.485Z,295.90
2023-02-14T22:41:40.928Z,438.42
2023-02-14T22:44:08.786Z,325.35
2023-02-14T22:46:35.558Z,239.30
2023-02-14T22:49:02.082Z,476.65
2023-02-14T22:51:28.997Z,385.95
2023-02-14T22:53:55.635Z,320.27
2023-02-14T22:56:22.652Z,315.00
2023-02-14T22:58:49.498Z,302.40
2023-02-14T23:01:16.274Z,294.05
2023-02-14T23:03:42.852Z,283.63
2023-02-14T23:06:09.909Z,273.23
2023-02-14T23:08:36.299Z,270.80
2023-02-14T23:11:03.069Z,260.33
2023-02-14T23:13:30.101Z,258.83
2023-02-14T23:15:56.748Z,247.65
2023-02-14T23:18:28.904Z,248.48
2023-02-14T23:20:55.739Z,241.25
2023-02-14T23:23:22.426Z,232.73
2023-02-14T23:25:49.384Z,224.15
2023-02-14T23:28:16.341Z,220.18
2023-02-14T23:30:42.741Z,220.35
2023-02-14T23:33:09.335Z,210.77
2023-02-14T23:35:36.122Z,211.40
2023-02-14T23:38:02.961Z,208.45
2023-02-14T23:40:29.434Z,197.07
2023-02-14T23:42:55.982Z,200.50
2023-02-14T23:45:22.510Z,196.00
2023-02-14T23:47:49.010Z,193.18
2023-02-14T23:50:15.394Z,189.10
2023-02-14T23:52:41.963Z,186.65
2023-02-14T23:55:08.674Z,177.48
2023-02-14T23:57:35.268Z,177.48
